»·PEaware :: N515ZT KSBP-KSMX

N515ZT :: KSBP-KSMX

FLIGHT INFORMATION

Flight Status: Arrived
Operator: Privately registered:
United States
More flights under this callsign
Pilot: Marty P. (27464)
Aircraft: BEECH AIRCRAFT BARON
(BE58)
More flights by this aircraft type
Origin: KSBP San Luis Co Regl
United States
Destination: KSMX Santa Maria Pub/Capt Hancock
United States
More flights between these airports :: More routes between these airports
Route: KSBP KSMX
File this flight plan on PilotEdge
Remarks: Cat 4
Altitude:
(Current/Filed)
3,500ft
Speed:
(Current/Filed)
160kts
Departed: 09-Jan-20 06:43 PM
Arrived: 09-Jan-20 07:15 PM
Distance/Time
Traveled:
22nm/0:32
Distance/Time
To Go:
Arrived

Flight Plot

Page will automatically refresh every two minutes.


Map Options




Map Legend


Flown Route
Filed Route
Departure Airport
Arrival Airport
Navaid (VOR, NDB)
Fix

Horizontal Profiles

Position Reports

Time Latitude Longitude Heading Altitude Ground
Speed
09-Jan-20 18:21 35.234202 -120.632859 0 216ft 0kts
09-Jan-20 18:22 35.234202 -120.632859 306 216ft 0kts
09-Jan-20 18:23 35.234202 -120.632859 306 216ft 0kts
09-Jan-20 18:24 35.234202 -120.632859 306 216ft 0kts
09-Jan-20 18:25 35.234202 -120.632859 306 216ft 0kts
09-Jan-20 18:26 35.234202 -120.632859 306 216ft 0kts
09-Jan-20 18:27 35.234202 -120.632859 306 216ft 0kts
09-Jan-20 18:28 35.234202 -120.632859 306 216ft 0kts
09-Jan-20 18:29 35.234202 -120.632859 306 216ft 0kts
09-Jan-20 18:31 35.234202 -120.632859 306 216ft 0kts
09-Jan-20 18:32 35.234202 -120.632859 306 216ft 0kts
09-Jan-20 18:33 35.234202 -120.632859 306 216ft 0kts
09-Jan-20 18:34 35.234202 -120.632859 306 216ft 0kts
09-Jan-20 18:35 35.234445 -120.633502 276 216ft 13kts
09-Jan-20 18:36 35.234085 -120.633406 124 216ft 12kts
09-Jan-20 18:37 35.233179 -120.632356 208 216ft 0kts
09-Jan-20 18:38 35.233179 -120.632356 208 216ft 0kts
09-Jan-20 18:39 35.233179 -120.632356 208 216ft 0kts
09-Jan-20 18:40 35.233179 -120.632356 208 216ft 0kts
09-Jan-20 18:41 35.233175 -120.632359 208 216ft 1kts
09-Jan-20 18:42 35.233090 -120.633556 304 216ft 20kts
09-Jan-20 18:43 35.236745 -120.640158 305 342ft 98kts
09-Jan-20 18:44 35.243040 -120.651208 305 875ft 115kts
09-Jan-20 18:45 35.246304 -120.663948 259 1468ft 122kts
09-Jan-20 18:46 35.239049 -120.673440 202 1982ft 131kts
09-Jan-20 18:47 35.228407 -120.668931 131 2464ft 138kts
09-Jan-20 18:48 35.221456 -120.659028 127 2919ft 139kts
09-Jan-20 18:49 35.213046 -120.646543 127 3499ft 140kts
09-Jan-20 18:49 35.204478 -120.633880 127 3571ft 174kts
09-Jan-20 18:50 35.189424 -120.611540 132 3404ft 200kts
09-Jan-20 18:52 35.167778 -120.601799 167 3595ft 194kts
09-Jan-20 18:53 35.147536 -120.593136 158 3497ft 204kts
09-Jan-20 18:53 35.130248 -120.583894 156 3483ft 205kts
09-Jan-20 18:55 35.106639 -120.570919 157 3343ft 168kts
09-Jan-20 18:55 35.093158 -120.563507 157 3408ft 149kts
09-Jan-20 18:56 35.075970 -120.553116 151 3521ft 179kts
09-Jan-20 18:58 35.057160 -120.537903 146 3384ft 183kts
09-Jan-20 18:58 35.044035 -120.526927 146 3252ft 180kts
09-Jan-20 18:59 35.030000 -120.515040 145 2855ft 154kts
09-Jan-20 19:00 35.016011 -120.503043 147 2658ft 163kts
09-Jan-20 19:01 35.000264 -120.490975 150 2349ft 165kts
09-Jan-20 19:02 34.983932 -120.479249 153 2131ft 165kts
09-Jan-20 19:03 34.968379 -120.468502 153 1808ft 164kts
09-Jan-20 19:04 34.952252 -120.458979 160 1384ft 151kts
09-Jan-20 19:05 34.940085 -120.445998 128 1389ft 143kts
09-Jan-20 19:06 34.928167 -120.429845 133 1313ft 154kts
09-Jan-20 19:07 34.917556 -120.415739 133 1215ft 128kts
09-Jan-20 19:08 34.905140 -120.399108 133 1218ft 146kts
09-Jan-20 19:09 34.891268 -120.389505 197 955ft 125kts
09-Jan-20 19:10 34.887680 -120.401699 279 1094ft 116kts
09-Jan-20 19:11 34.886807 -120.421628 269 710ft 159kts
09-Jan-20 19:12 34.885184 -120.438029 254 944ft 65kts
09-Jan-20 19:13 34.891350 -120.444539 322 335ft 83kts
09-Jan-20 19:14 34.896392 -120.450126 315 265ft 19kts
09-Jan-20 19:15 34.897871 -120.450272 0 265ft 0kts
09-Jan-20 19:16 34.898674 -120.450394 316 265ft 18kts
09-Jan-20 19:17 34.900016 -120.451335 46 265ft 12kts
09-Jan-20 19:18 34.900970 -120.450347 2 265ft 0kts

Navigation Log

Ident Type
Flight plan parsing failed, navigation log unavailable